createdAt,value
2016-08-16T03:01:22.206Z,0
2016-08-16T03:01:47.820Z,0
2016-08-16T03:02:13.399Z,0
2016-08-16T03:02:38.980Z,0
2016-08-16T03:03:04.546Z,0
2016-08-16T03:03:30.203Z,0
2016-08-16T03:03:55.804Z,0
2016-08-16T03:04:21.381Z,0
2016-08-16T03:04:46.938Z,0
2016-08-16T03:05:12.517Z,0
2016-08-16T03:05:38.087Z,0
2016-08-16T03:06:03.655Z,0
2016-08-16T03:06:29.229Z,0
2016-08-16T03:06:54.795Z,0
2016-08-16T03:08:13.667Z,0
2016-08-16T03:08:39.221Z,0
2016-08-16T03:09:04.804Z,0
2016-08-16T03:09:30.364Z,0
2016-08-16T03:09:55.926Z,0
2016-08-16T03:10:21.620Z,0
2016-08-16T03:10:47.215Z,0
2016-08-16T03:11:12.762Z,0
2016-08-16T03:11:38.441Z,0
2016-08-16T03:12:04.082Z,0
2016-08-16T03:12:29.638Z,0
2016-08-16T03:12:55.186Z,0
2016-08-16T03:13:20.729Z,0
2016-08-16T03:13:47.121Z,0
2016-08-16T03:14:12.667Z,0
2016-08-16T03:14:38.231Z,0
2016-08-16T03:15:03.779Z,0
2016-08-16T03:15:29.419Z,0
2016-08-16T03:15:54.974Z,0
2016-08-16T03:17:17.619Z,0
2016-08-16T03:17:43.187Z,0
2016-08-16T03:18:08.759Z,0
2016-08-16T03:18:34.310Z,0
2016-08-16T03:18:59.884Z,0
2016-08-16T03:20:22.640Z,0
2016-08-16T03:20:48.493Z,0
2016-08-16T03:21:14.048Z,0
2016-08-16T03:21:39.613Z,0
2016-08-16T03:22:05.175Z,0
2016-08-16T03:22:30.814Z,0
2016-08-16T03:22:56.385Z,0
2016-08-16T03:23:21.961Z,0
2016-08-16T03:23:47.525Z,0
2016-08-16T03:24:13.103Z,0
2016-08-16T03:24:38.675Z,0
2016-08-16T03:25:04.250Z,0
2016-08-16T03:25:29.824Z,0
2016-08-16T03:25:55.511Z,0
2016-08-16T03:26:21.266Z,0
2016-08-16T03:26:46.833Z,0
2016-08-16T03:27:12.409Z,0
2016-08-16T03:27:38.021Z,0
2016-08-16T03:28:03.592Z,0
2016-08-16T03:28:29.145Z,0
2016-08-16T03:28:54.903Z,0
2016-08-16T03:29:20.453Z,0
2016-08-16T03:29:46.140Z,0
2016-08-16T03:30:11.714Z,0
2016-08-16T03:30:37.471Z,0
2016-08-16T03:31:03.405Z,0
2016-08-16T03:31:28.962Z,0
2016-08-16T03:31:54.645Z,0
2016-08-16T03:32:20.217Z,0
2016-08-16T03:32:45.807Z,0
2016-08-16T03:33:11.365Z,0
2016-08-16T03:33:36.927Z,0
2016-08-16T03:34:02.505Z,0
2016-08-16T03:34:28.071Z,0
2016-08-16T03:34:53.656Z,0
2016-08-16T03:35:19.221Z,0
2016-08-16T03:35:44.773Z,0
2016-08-16T03:36:10.399Z,0
2016-08-16T03:36:35.954Z,0
2016-08-16T03:37:01.515Z,0
2016-08-16T03:37:27.090Z,0
2016-08-16T03:37:52.655Z,0
2016-08-16T03:38:18.219Z,0
2016-08-16T03:38:43.768Z,0
2016-08-16T03:39:09.318Z,0
2016-08-16T03:39:34.886Z,0
2016-08-16T03:40:00.463Z,0
2016-08-16T03:40:26.027Z,0
2016-08-16T03:40:51.591Z,0
2016-08-16T03:41:17.195Z,0
2016-08-16T03:41:42.773Z,0
2016-08-16T03:42:08.342Z,0
2016-08-16T03:42:33.903Z,0
2016-08-16T03:42:59.453Z,0
2016-08-16T03:43:25.104Z,0
2016-08-16T03:43:50.662Z,0
2016-08-16T03:44:16.260Z,0
2016-08-16T03:44:41.943Z,0
2016-08-16T03:45:07.514Z,0
2016-08-16T03:45:33.126Z,0
2016-08-16T03:45:58.794Z,0
2016-08-16T03:46:24.405Z,0
2016-08-16T03:46:49.975Z,0
2016-08-16T03:47:15.579Z,0
2016-08-16T03:47:41.128Z,0
2016-08-16T03:48:06.694Z,0
2016-08-16T03:48:32.266Z,0
2016-08-16T03:48:57.886Z,0
2016-08-16T03:49:23.461Z,0
2016-08-16T03:49:49.118Z,0
2016-08-16T03:50:14.702Z,0
2016-08-16T03:50:40.273Z,0
2016-08-16T03:51:05.825Z,0
2016-08-16T03:51:31.405Z,0
2016-08-16T03:51:56.967Z,4
2016-08-16T03:52:22.535Z,4
2016-08-16T03:52:48.135Z,4
2016-08-16T03:53:13.702Z,4
2016-08-16T03:53:39.264Z,4
2016-08-16T03:54:04.858Z,4
2016-08-16T03:54:30.432Z,0
2016-08-16T03:54:55.986Z,0
2016-08-16T03:55:21.563Z,0
2016-08-16T03:55:47.243Z,0
2016-08-16T03:56:12.838Z,4
2016-08-16T03:56:38.421Z,4
2016-08-16T03:57:04.003Z,4
2016-08-16T03:57:29.575Z,4
2016-08-16T03:57:55.147Z,0
2016-08-16T03:58:20.727Z,4
2016-08-16T03:58:46.289Z,4
2016-08-16T03:59:11.893Z,4
2016-08-16T03:59:37.460Z,4
2016-08-16T04:00:03.029Z,4
2016-08-16T04:01:16.387Z,4
2016-08-16T04:01:41.956Z,4
2016-08-16T04:02:07.510Z,4
2016-08-16T04:02:33.056Z,4
2016-08-16T04:02:58.607Z,4
2016-08-16T04:03:24.145Z,4
2016-08-16T04:03:49.787Z,4
2016-08-16T04:04:15.366Z,4
2016-08-16T04:04:40.951Z,4
2016-08-16T04:05:06.497Z,4
2016-08-16T04:05:32.080Z,8
2016-08-16T04:05:57.632Z,8
2016-08-16T04:06:23.186Z,8
2016-08-16T04:06:48.737Z,8
2016-08-16T04:07:14.290Z,8
2016-08-16T04:08:22.604Z,8
2016-08-16T04:08:48.199Z,8
2016-08-16T04:09:13.764Z,8
2016-08-16T04:09:39.532Z,8
2016-08-16T04:10:08.914Z,8
2016-08-16T04:10:34.484Z,12
2016-08-16T04:11:00.032Z,8
2016-08-16T04:11:25.593Z,8
2016-08-16T04:11:51.177Z,12
2016-08-16T04:12:16.743Z,12
2016-08-16T04:12:42.312Z,8
2016-08-16T04:13:07.882Z,12
2016-08-16T04:13:33.570Z,12
2016-08-16T04:13:59.134Z,8
2016-08-16T04:14:24.888Z,12
2016-08-16T04:14:50.484Z,12
2016-08-16T04:15:16.356Z,12
2016-08-16T04:15:41.969Z,12
2016-08-16T04:16:07.724Z,12
2016-08-16T04:16:33.404Z,16
2016-08-16T04:16:58.902Z,16
2016-08-16T04:17:24.639Z,16
2016-08-16T04:17:50.279Z,12
2016-08-16T04:18:16.012Z,16
2016-08-16T04:18:41.643Z,16
2016-08-16T04:19:07.214Z,20
2016-08-16T04:19:32.776Z,16
2016-08-16T04:19:58.513Z,16
2016-08-16T04:20:24.073Z,20
2016-08-16T04:20:49.635Z,20
2016-08-16T04:21:15.223Z,20
2016-08-16T04:21:40.754Z,20
2016-08-16T04:22:06.299Z,20
2016-08-16T04:22:32.064Z,24
2016-08-16T04:23:34.211Z,28
2016-08-16T04:23:59.842Z,28
2016-08-16T04:24:25.534Z,28
2016-08-16T04:24:51.093Z,32
2016-08-16T04:25:16.655Z,28
2016-08-16T04:25:42.205Z,32
2016-08-16T04:26:07.767Z,32
2016-08-16T04:26:33.358Z,32
2016-08-16T04:26:58.907Z,32
2016-08-16T04:27:24.454Z,36
2016-08-16T04:27:50.023Z,36
2016-08-16T04:28:15.728Z,36
2016-08-16T04:28:41.299Z,36
2016-08-16T04:29:06.857Z,40
2016-08-16T04:29:32.554Z,40
2016-08-16T04:29:58.103Z,44
2016-08-16T04:30:23.664Z,40
2016-08-16T04:30:49.233Z,44
2016-08-16T04:31:14.790Z,44
2016-08-16T04:31:40.374Z,44
2016-08-16T04:32:05.946Z,44
2016-08-16T04:32:31.515Z,44
2016-08-16T04:32:57.102Z,48
2016-08-16T04:33:22.752Z,48
2016-08-16T04:33:48.298Z,48
2016-08-16T04:34:13.846Z,48
2016-08-16T04:34:39.391Z,52
2016-08-16T04:35:04.940Z,52
2016-08-16T04:35:30.500Z,56
2016-08-16T04:35:56.107Z,56
2016-08-16T04:36:21.681Z,56
2016-08-16T04:36:47.238Z,56
2016-08-16T04:37:12.811Z,60
2016-08-16T04:37:38.380Z,60
2016-08-16T04:38:03.922Z,64
2016-08-16T04:38:29.491Z,64
2016-08-16T04:38:55.054Z,64
2016-08-16T04:39:20.617Z,68
2016-08-16T04:39:46.193Z,68
2016-08-16T04:40:11.765Z,68
2016-08-16T04:40:37.374Z,72
2016-08-16T04:41:02.964Z,72
2016-08-16T04:41:28.695Z,72
2016-08-16T04:41:54.277Z,72
2016-08-16T04:42:19.894Z,72
2016-08-16T04:42:45.458Z,72
2016-08-16T04:43:11.035Z,76
2016-08-16T04:43:36.680Z,76
2016-08-16T04:44:02.152Z,76
2016-08-16T04:44:27.739Z,80
2016-08-16T04:44:53.306Z,80
2016-08-16T04:45:18.862Z,80
2016-08-16T04:45:44.431Z,84
2016-08-16T04:46:09.983Z,84
2016-08-16T04:46:35.540Z,84
2016-08-16T04:47:01.126Z,88
2016-08-16T04:47:26.693Z,88
2016-08-16T04:47:52.268Z,92
2016-08-16T04:48:17.883Z,88
2016-08-16T04:48:43.469Z,92
2016-08-16T04:49:09.022Z,96
2016-08-16T04:49:34.575Z,96
2016-08-16T04:50:00.140Z,96
2016-08-16T04:50:25.758Z,96
2016-08-16T04:50:51.278Z,100
2016-08-16T04:51:16.862Z,104
2016-08-16T04:51:42.403Z,104
2016-08-16T04:52:08.011Z,104
2016-08-16T04:52:33.582Z,108
2016-08-16T04:52:59.142Z,112
2016-08-16T04:53:24.721Z,108
2016-08-16T04:53:50.293Z,112
2016-08-16T04:54:15.855Z,116
2016-08-16T04:54:41.427Z,112
2016-08-16T04:55:07.001Z,116
2016-08-16T04:55:32.559Z,116
2016-08-16T04:55:58.144Z,120
2016-08-16T04:56:23.702Z,120
2016-08-16T04:56:49.358Z,124
2016-08-16T04:57:14.941Z,124
2016-08-16T04:57:40.508Z,128
2016-08-16T04:58:06.048Z,128
2016-08-16T04:58:31.609Z,128
2016-08-16T04:58:57.202Z,132
2016-08-16T04:59:22.816Z,132
2016-08-16T04:59:48.413Z,132
2016-08-16T05:00:13.966Z,132
2016-08-16T05:00:39.519Z,132
2016-08-16T05:01:05.106Z,116
2016-08-16T05:01:30.705Z,136
2016-08-16T05:01:56.269Z,136
2016-08-16T05:02:21.921Z,132
2016-08-16T05:02:47.500Z,136
2016-08-16T05:03:13.069Z,140
2016-08-16T05:03:38.630Z,140
2016-08-16T05:04:04.188Z,140
2016-08-16T05:04:29.738Z,140
2016-08-16T05:04:55.290Z,148
2016-08-16T05:05:20.853Z,148
2016-08-16T05:05:46.478Z,152
2016-08-16T05:06:12.033Z,152
2016-08-16T05:06:37.575Z,156
2016-08-16T05:07:03.137Z,152
2016-08-16T05:07:28.701Z,156
2016-08-16T05:07:54.262Z,152
2016-08-16T05:08:19.884Z,152
2016-08-16T05:08:45.461Z,148
2016-08-16T05:09:11.076Z,144
2016-08-16T05:09:36.578Z,140
2016-08-16T05:10:02.155Z,140
2016-08-16T05:10:27.734Z,132
2016-08-16T05:10:53.292Z,128
2016-08-16T05:11:18.854Z,124
2016-08-16T05:11:44.418Z,120
2016-08-16T05:12:10.059Z,128
2016-08-16T05:12:35.634Z,136
2016-08-16T05:13:01.192Z,140
2016-08-16T05:13:26.767Z,144
2016-08-16T05:13:52.314Z,148
2016-08-16T05:14:17.887Z,152
2016-08-16T05:14:43.454Z,152
2016-08-16T05:15:09.014Z,156
2016-08-16T05:15:34.583Z,156
2016-08-16T05:16:00.167Z,156
2016-08-16T05:16:25.735Z,160
2016-08-16T05:16:51.425Z,136
2016-08-16T05:17:17.053Z,152
2016-08-16T05:17:42.615Z,164
2016-08-16T05:18:08.194Z,168
2016-08-16T05:18:33.834Z,164
2016-08-16T05:18:59.406Z,168
2016-08-16T05:19:24.985Z,168
2016-08-16T05:19:50.544Z,168
2016-08-16T05:20:16.110Z,172
2016-08-16T05:20:41.675Z,176
2016-08-16T05:21:07.254Z,188
2016-08-16T05:22:21.154Z,304
2016-08-16T05:22:46.880Z,360
2016-08-16T05:23:12.786Z,424
2016-08-16T05:23:39.205Z,480
2016-08-16T05:24:05.049Z,528
2016-08-16T05:24:31.351Z,564
2016-08-16T05:24:57.474Z,588
2016-08-16T05:25:23.507Z,608
2016-08-16T05:25:49.366Z,624
2016-08-16T05:26:15.397Z,636
2016-08-16T05:26:41.080Z,648
2016-08-16T05:27:07.073Z,664
2016-08-16T05:27:32.986Z,676
2016-08-16T05:27:59.009Z,692
2016-08-16T05:28:25.431Z,692
2016-08-16T05:28:51.471Z,692
2016-08-16T05:29:17.688Z,680
2016-08-16T05:29:43.725Z,664
2016-08-16T05:30:10.294Z,656
2016-08-16T05:30:36.367Z,648
2016-08-16T05:31:02.573Z,640
2016-08-16T05:31:28.560Z,628
2016-08-16T05:31:54.880Z,632
2016-08-16T05:32:21.085Z,628
2016-08-16T05:32:47.371Z,616
2016-08-16T05:33:13.790Z,616
2016-08-16T05:33:39.896Z,616
2016-08-16T05:34:06.470Z,612
2016-08-16T05:34:32.500Z,600
2016-08-16T05:34:58.318Z,588
2016-08-16T05:35:24.246Z,576
2016-08-16T05:35:50.354Z,560
2016-08-16T05:36:16.729Z,544
2016-08-16T05:36:42.959Z,500
2016-08-16T05:37:08.957Z,516
2016-08-16T05:37:35.214Z,508
2016-08-16T05:38:01.652Z,500
2016-08-16T05:38:27.811Z,484
2016-08-16T05:38:54.424Z,456
2016-08-16T05:39:20.417Z,476
2016-08-16T05:39:46.417Z,508
2016-08-16T05:40:12.546Z,492
2016-08-16T05:40:38.892Z,416
2016-08-16T05:41:05.178Z,412
2016-08-16T05:41:31.136Z,456
2016-08-16T05:41:57.306Z,456
2016-08-16T05:42:23.336Z,440
2016-08-16T05:42:49.516Z,436
2016-08-16T05:43:15.734Z,428
2016-08-16T05:43:41.583Z,420
2016-08-16T05:44:07.509Z,412
2016-08-16T05:44:33.994Z,412
2016-08-16T05:45:00.198Z,412
2016-08-16T05:45:26.031Z,404
2016-08-16T05:45:52.282Z,400
2016-08-16T05:46:18.535Z,400
2016-08-16T05:46:44.566Z,396
2016-08-16T05:47:10.722Z,392
2016-08-16T05:47:36.770Z,384
2016-08-16T05:48:02.696Z,380
2016-08-16T05:48:28.907Z,376
2016-08-16T05:48:55.305Z,376
2016-08-16T05:49:21.699Z,376
2016-08-16T05:49:47.773Z,368
2016-08-16T05:50:13.998Z,372
2016-08-16T05:50:39.911Z,368
2016-08-16T05:51:05.965Z,360
2016-08-16T05:51:32.000Z,356
2016-08-16T05:51:58.305Z,352
2016-08-16T05:52:24.430Z,352
2016-08-16T05:52:50.830Z,344
2016-08-16T05:53:17.030Z,356
2016-08-16T05:53:43.229Z,332
2016-08-16T05:54:09.277Z,316
2016-08-16T05:54:35.282Z,320
2016-08-16T05:55:01.036Z,336
2016-08-16T05:55:26.592Z,336
2016-08-16T05:55:52.148Z,328
2016-08-16T05:56:17.735Z,288
2016-08-16T05:56:43.321Z,280
2016-08-16T05:57:08.940Z,272
2016-08-16T05:57:34.513Z,272
2016-08-16T05:58:00.084Z,268
2016-08-16T05:58:26.286Z,248
2016-08-16T05:58:52.538Z,248
2016-08-16T06:00:17.192Z,248
2016-08-16T06:16:13.462Z,280
2016-08-16T06:16:39.653Z,276
2016-08-16T06:17:05.612Z,276
2016-08-16T06:17:31.802Z,268
2016-08-16T06:17:58.073Z,260
2016-08-16T06:18:24.110Z,252
2016-08-16T06:18:50.598Z,72
2016-08-16T06:27:19.962Z,252
2016-08-16T06:27:45.567Z,252
2016-08-16T06:28:11.127Z,248
2016-08-16T06:28:36.677Z,244
2016-08-16T06:29:02.216Z,240
2016-08-16T06:29:27.757Z,232
2016-08-16T06:29:53.371Z,232
2016-08-16T06:30:20.976Z,232
2016-08-16T06:30:46.868Z,232
2016-08-16T06:31:12.397Z,248
2016-08-16T06:31:38.017Z,260
2016-08-16T06:32:03.630Z,264
2016-08-16T06:32:29.180Z,268
2016-08-16T06:32:54.731Z,268
2016-08-16T06:33:20.286Z,260
2016-08-16T06:33:45.856Z,260
2016-08-16T06:34:11.410Z,260
2016-08-16T06:34:37.038Z,268
2016-08-16T06:35:02.602Z,284
2016-08-16T06:35:28.161Z,296
2016-08-16T06:35:53.798Z,304
2016-08-16T06:36:19.384Z,304
2016-08-16T06:36:44.955Z,304
2016-08-16T06:37:10.541Z,304
2016-08-16T06:37:36.101Z,304
2016-08-16T06:38:01.720Z,304
2016-08-16T06:39:25.387Z,312
2016-08-16T06:39:51.016Z,308
2016-08-16T06:40:16.589Z,312
2016-08-16T06:40:42.153Z,316
2016-08-16T06:41:07.827Z,316
2016-08-16T06:41:33.402Z,316
2016-08-16T06:41:58.960Z,316
2016-08-16T06:42:24.594Z,316
2016-08-16T06:42:50.235Z,312
2016-08-16T06:43:15.794Z,308
2016-08-16T06:43:41.410Z,304
2016-08-16T06:44:07.056Z,300
2016-08-16T06:44:32.591Z,300
2016-08-16T06:44:58.178Z,292
2016-08-16T06:45:23.753Z,292
2016-08-16T06:45:49.310Z,288
2016-08-16T06:46:14.882Z,284
2016-08-16T06:46:40.458Z,280
2016-08-16T06:47:06.050Z,276
2016-08-16T06:47:31.715Z,272
2016-08-16T06:47:57.267Z,268
2016-08-16T06:48:22.825Z,260
2016-08-16T06:48:48.433Z,252
2016-08-16T06:49:13.966Z,244
2016-08-16T06:49:39.524Z,240
2016-08-16T06:50:05.088Z,236
2016-08-16T06:50:30.800Z,232
2016-08-16T06:50:56.363Z,228
2016-08-16T06:51:22.089Z,232
2016-08-16T06:51:47.660Z,232
2016-08-16T06:52:13.231Z,232
2016-08-16T06:52:38.764Z,232
2016-08-16T06:53:04.315Z,236
2016-08-16T06:53:29.864Z,236
2016-08-16T06:53:55.427Z,232
2016-08-16T06:54:20.999Z,236
2016-08-16T06:54:46.570Z,236
2016-08-16T06:55:12.121Z,236
2016-08-16T06:55:37.659Z,236
2016-08-16T06:56:03.227Z,232
2016-08-16T06:56:28.759Z,232
2016-08-16T06:56:54.312Z,232
2016-08-16T06:57:19.920Z,232
2016-08-16T06:57:45.512Z,228
2016-08-16T06:58:11.056Z,228
2016-08-16T06:58:36.607Z,228
2016-08-16T06:59:02.166Z,232
2016-08-16T06:59:27.711Z,236
2016-08-16T06:59:53.268Z,240
2016-08-16T07:00:18.831Z,244
2016-08-16T07:00:44.390Z,248
2016-08-16T07:01:09.987Z,244
2016-08-16T07:01:35.643Z,244
2016-08-16T07:02:01.203Z,240
2016-08-16T07:02:26.760Z,240
2016-08-16T07:02:52.335Z,240
2016-08-16T07:03:17.909Z,244
2016-08-16T07:03:43.465Z,244
2016-08-16T07:04:09.042Z,244
2016-08-16T07:04:34.616Z,236
2016-08-16T07:05:00.183Z,232
2016-08-16T07:05:25.885Z,232
2016-08-16T07:05:51.475Z,220
2016-08-16T07:06:17.046Z,212
2016-08-16T07:06:42.622Z,196
2016-08-16T07:07:08.200Z,192
2016-08-16T07:07:33.787Z,184
2016-08-16T07:07:59.355Z,176
2016-08-16T07:08:24.920Z,176
2016-08-16T07:08:50.554Z,172
2016-08-16T07:09:16.115Z,164
2016-08-16T07:09:41.696Z,164
2016-08-16T07:10:07.256Z,160
2016-08-16T07:10:32.806Z,156
2016-08-16T07:10:58.362Z,160
2016-08-16T07:11:23.929Z,164
2016-08-16T07:11:49.480Z,164
2016-08-16T07:12:15.045Z,164
2016-08-16T07:12:40.682Z,168
2016-08-16T07:13:06.276Z,168
2016-08-16T07:13:31.853Z,172
2016-08-16T07:13:57.639Z,172
2016-08-16T07:14:22.990Z,168
2016-08-16T07:14:48.548Z,164
2016-08-16T07:15:14.128Z,164
2016-08-16T07:15:39.679Z,164
2016-08-16T07:16:05.237Z,160
2016-08-16T07:16:30.810Z,160
2016-08-16T07:16:56.380Z,160
2016-08-16T07:17:21.953Z,164
2016-08-16T07:17:47.636Z,164
2016-08-16T07:18:13.226Z,168
2016-08-16T07:18:38.785Z,172
2016-08-16T07:19:04.419Z,180
2016-08-16T07:19:30.046Z,200
2016-08-16T07:19:55.620Z,204
2016-08-16T07:20:21.226Z,208
2016-08-16T07:20:46.831Z,208
2016-08-16T07:21:12.581Z,216
2016-08-16T07:21:38.141Z,216
2016-08-16T07:22:03.745Z,196
2016-08-16T07:22:29.307Z,44
2016-08-16T07:22:54.880Z,220
2016-08-16T07:23:20.464Z,236
2016-08-16T07:23:46.088Z,240
2016-08-16T07:24:11.655Z,244
2016-08-16T07:24:37.203Z,244
2016-08-16T07:25:02.870Z,240
2016-08-16T07:25:28.485Z,244
2016-08-16T07:25:54.035Z,264
2016-08-16T07:26:19.600Z,296
2016-08-16T07:26:45.154Z,84
2016-08-16T07:27:10.733Z,88
2016-08-16T07:27:36.312Z,92
2016-08-16T07:28:01.889Z,252
2016-08-16T07:28:27.461Z,248
2016-08-16T07:28:53.054Z,244
2016-08-16T07:29:18.607Z,244
2016-08-16T07:29:44.183Z,240
2016-08-16T07:30:10.067Z,236
2016-08-16T07:30:35.429Z,236
2016-08-16T07:31:00.997Z,236
2016-08-16T07:31:26.559Z,236
2016-08-16T07:31:52.326Z,236
2016-08-16T07:32:18.061Z,240
2016-08-16T07:32:43.622Z,244
2016-08-16T07:33:09.186Z,248
2016-08-16T07:33:34.737Z,248
2016-08-16T07:34:00.286Z,248
2016-08-16T07:34:25.849Z,252
2016-08-16T07:34:51.413Z,256
2016-08-16T07:35:16.989Z,256
2016-08-16T07:35:42.640Z,256
2016-08-16T07:36:08.209Z,256
2016-08-16T07:36:33.773Z,256
2016-08-16T07:36:59.309Z,252
2016-08-16T07:37:24.883Z,252
2016-08-16T07:37:50.461Z,256
2016-08-16T07:38:16.023Z,256
2016-08-16T07:38:41.599Z,256
2016-08-16T07:39:07.382Z,256
2016-08-16T07:39:32.966Z,256
2016-08-16T07:39:58.623Z,256
2016-08-16T07:40:24.174Z,256
2016-08-16T07:40:49.739Z,256
2016-08-16T07:41:15.409Z,256
2016-08-16T07:41:40.988Z,252
2016-08-16T07:42:06.555Z,244
2016-08-16T07:42:32.124Z,240
2016-08-16T07:42:57.668Z,240
2016-08-16T07:43:23.253Z,236
2016-08-16T07:43:48.824Z,240
2016-08-16T07:44:14.401Z,244
2016-08-16T07:44:39.963Z,248
2016-08-16T07:45:05.568Z,248
2016-08-16T07:45:31.320Z,256
2016-08-16T07:45:56.892Z,256
2016-08-16T07:46:22.491Z,260
2016-08-16T07:46:48.067Z,260
2016-08-16T07:47:13.627Z,264
2016-08-16T07:47:39.185Z,264
2016-08-16T07:48:04.744Z,256
2016-08-16T07:48:30.336Z,256
2016-08-16T07:48:55.992Z,248
2016-08-16T07:49:21.486Z,244
2016-08-16T07:49:47.055Z,240
2016-08-16T07:50:12.639Z,240
2016-08-16T07:50:38.227Z,240
2016-08-16T07:51:03.802Z,240
2016-08-16T07:51:29.355Z,244
2016-08-16T07:51:54.926Z,244
2016-08-16T07:52:20.470Z,244
2016-08-16T07:52:46.043Z,244
2016-08-16T07:53:11.616Z,236
2016-08-16T07:53:37.219Z,236
2016-08-16T07:54:02.782Z,228
2016-08-16T07:54:28.406Z,220
2016-08-16T07:54:53.973Z,212
2016-08-16T07:55:19.530Z,204
2016-08-16T07:55:45.242Z,200
2016-08-16T07:56:10.805Z,188
2016-08-16T07:56:36.376Z,184
2016-08-16T07:57:01.937Z,180
2016-08-16T07:57:27.576Z,176
2016-08-16T07:57:53.174Z,168
2016-08-16T07:58:18.741Z,168
2016-08-16T07:58:44.289Z,160
2016-08-16T07:59:09.872Z,160
2016-08-16T07:59:35.467Z,152
2016-08-16T08:00:01.047Z,148
2016-08-16T08:00:26.661Z,144
2016-08-16T08:00:52.238Z,144
2016-08-16T08:01:17.813Z,140
2016-08-16T08:02:30.792Z,136
2016-08-16T08:02:56.368Z,136
2016-08-16T08:03:21.929Z,132
2016-08-16T08:04:25.093Z,128
2016-08-16T08:04:50.677Z,128
2016-08-16T08:05:16.234Z,132
2016-08-16T08:05:41.796Z,124
2016-08-16T08:06:07.359Z,124
2016-08-16T08:06:32.927Z,120
2016-08-16T08:06:58.633Z,124
2016-08-16T08:07:24.235Z,124
2016-08-16T08:07:49.849Z,120
2016-08-16T08:08:15.410Z,124
2016-08-16T08:08:40.963Z,124
2016-08-16T08:09:06.531Z,124
2016-08-16T08:09:32.165Z,120
2016-08-16T08:09:57.724Z,120
2016-08-16T08:10:23.262Z,120
2016-08-16T08:10:48.836Z,120
2016-08-16T08:11:14.413Z,120
2016-08-16T08:11:40.079Z,124
2016-08-16T08:12:05.643Z,120
2016-08-16T08:12:31.237Z,128
2016-08-16T08:12:56.806Z,124
2016-08-16T08:13:22.356Z,128
2016-08-16T08:14:25.560Z,128
2016-08-16T08:14:51.137Z,128
2016-08-16T08:15:16.706Z,128
2016-08-16T08:15:42.294Z,128
2016-08-16T08:16:07.891Z,124
2016-08-16T08:16:33.488Z,124
2016-08-16T08:16:59.055Z,120
2016-08-16T08:17:24.631Z,124
2016-08-16T08:17:50.191Z,124
2016-08-16T08:18:15.814Z,128
2016-08-16T08:18:41.374Z,128
2016-08-16T08:19:06.941Z,132
2016-08-16T08:19:32.557Z,132
2016-08-16T08:19:58.133Z,132
2016-08-16T08:20:23.938Z,132
2016-08-16T08:20:49.431Z,132
2016-08-16T08:21:15.002Z,132
2016-08-16T08:21:40.560Z,132
2016-08-16T08:22:06.126Z,132
2016-08-16T08:22:31.716Z,132
2016-08-16T08:22:57.321Z,124
2016-08-16T08:23:22.871Z,128
2016-08-16T08:23:48.444Z,128
2016-08-16T08:24:14.010Z,132
2016-08-16T08:24:39.585Z,132
2016-08-16T08:25:05.151Z,128
2016-08-16T08:25:30.726Z,128
2016-08-16T08:25:56.293Z,140
2016-08-16T08:26:21.857Z,144
2016-08-16T08:26:47.429Z,148
2016-08-16T08:27:12.986Z,148
2016-08-16T08:27:38.541Z,152
2016-08-16T08:28:04.101Z,152
2016-08-16T08:28:29.704Z,156
2016-08-16T08:28:55.274Z,156
2016-08-16T08:29:20.842Z,152
2016-08-16T08:29:46.416Z,148
2016-08-16T08:30:11.975Z,144
2016-08-16T08:30:37.534Z,144
2016-08-16T08:31:03.114Z,140
2016-08-16T08:31:28.695Z,140
2016-08-16T08:31:54.248Z,136
2016-08-16T08:32:19.910Z,140
2016-08-16T08:32:45.476Z,140
2016-08-16T08:33:11.048Z,148
2016-08-16T08:33:36.623Z,160
2016-08-16T08:34:02.236Z,172
2016-08-16T08:34:27.817Z,180
2016-08-16T08:34:53.380Z,176
2016-08-16T08:35:18.964Z,176
2016-08-16T08:35:44.624Z,168
2016-08-16T08:36:10.177Z,160
2016-08-16T08:36:35.722Z,156
2016-08-16T08:37:01.280Z,160
2016-08-16T08:37:26.830Z,160
2016-08-16T08:37:52.510Z,168
2016-08-16T08:38:18.072Z,172
2016-08-16T08:38:43.610Z,160
2016-08-16T08:39:09.270Z,172
2016-08-16T08:39:34.815Z,180
2016-08-16T08:40:00.407Z,208
2016-08-16T08:40:26.073Z,212
2016-08-16T08:40:51.648Z,204
2016-08-16T08:41:17.240Z,168
2016-08-16T08:41:42.803Z,164
2016-08-16T08:42:08.357Z,156
2016-08-16T08:42:33.918Z,124
2016-08-16T08:42:59.469Z,128
2016-08-16T08:43:25.021Z,132
2016-08-16T08:43:50.575Z,132
2016-08-16T08:44:16.211Z,144
2016-08-16T08:44:41.789Z,156
2016-08-16T08:45:07.358Z,168
2016-08-16T08:45:32.922Z,176
2016-08-16T08:45:58.524Z,164
2016-08-16T08:46:24.101Z,164
2016-08-16T08:46:49.653Z,164
2016-08-16T08:47:15.214Z,164
2016-08-16T08:47:40.771Z,160
2016-08-16T08:48:06.319Z,152
2016-08-16T08:48:31.887Z,140
2016-08-16T08:48:57.449Z,140
2016-08-16T08:49:23.038Z,144
2016-08-16T08:49:48.662Z,148
2016-08-16T08:50:14.228Z,152
2016-08-16T08:50:39.806Z,152
2016-08-16T08:51:05.376Z,148
2016-08-16T08:51:31.047Z,148
2016-08-16T08:51:56.629Z,148
2016-08-16T08:52:22.201Z,144
2016-08-16T08:52:47.768Z,144
2016-08-16T08:53:13.342Z,148
2016-08-16T08:53:38.942Z,148
2016-08-16T08:54:04.490Z,144
2016-08-16T08:54:30.298Z,140
2016-08-16T08:54:55.860Z,136
2016-08-16T08:55:21.405Z,136
2016-08-16T08:55:46.962Z,132
2016-08-16T08:56:12.599Z,132
2016-08-16T08:56:38.138Z,136
2016-08-16T08:57:03.704Z,136
2016-08-16T08:57:29.266Z,144
2016-08-16T08:57:54.833Z,152
2016-08-16T08:58:20.379Z,164
2016-08-16T08:58:45.939Z,180
2016-08-16T08:59:11.529Z,188
2016-08-16T08:59:37.106Z,188
2016-08-16T09:00:02.727Z,188
2016-08-16T09:00:28.319Z,184
2016-08-16T09:00:53.887Z,176
2016-08-16T09:01:19.559Z,172
2016-08-16T09:01:45.126Z,168
2016-08-16T09:02:10.737Z,172
2016-08-16T09:02:36.451Z,184
2016-08-16T09:03:02.022Z,192
2016-08-16T09:03:27.625Z,184
2016-08-16T09:03:53.203Z,176
2016-08-16T09:04:18.764Z,176
2016-08-16T09:04:44.365Z,168
2016-08-16T09:05:09.977Z,156
2016-08-16T09:05:35.583Z,148
2016-08-16T09:06:01.151Z,140
2016-08-16T09:06:26.775Z,140
2016-08-16T09:06:52.382Z,144
2016-08-16T09:07:17.952Z,144
2016-08-16T09:07:43.526Z,144
2016-08-16T09:08:09.103Z,144
2016-08-16T09:08:34.856Z,140
2016-08-16T09:09:00.243Z,140
2016-08-16T09:09:25.816Z,140
2016-08-16T09:09:51.379Z,140
2016-08-16T09:10:16.966Z,144
2016-08-16T09:10:42.536Z,152
2016-08-16T09:11:08.078Z,160
2016-08-16T09:11:33.854Z,160
2016-08-16T09:11:59.420Z,160
2016-08-16T09:12:25.000Z,160
2016-08-16T09:12:50.573Z,160
2016-08-16T09:13:16.138Z,156
2016-08-16T09:13:41.725Z,156
2016-08-16T09:14:07.286Z,152
2016-08-16T09:14:32.858Z,156
2016-08-16T09:14:58.424Z,140
2016-08-16T09:15:23.996Z,140
2016-08-16T09:15:49.563Z,152
2016-08-16T09:16:15.126Z,148
2016-08-16T09:16:40.704Z,152
2016-08-16T09:17:06.256Z,156
2016-08-16T09:17:31.840Z,156
2016-08-16T09:17:57.403Z,148
2016-08-16T09:18:23.016Z,140
2016-08-16T09:18:48.619Z,144
2016-08-16T09:19:14.195Z,144
2016-08-16T09:19:39.757Z,152
2016-08-16T09:20:05.327Z,168
2016-08-16T09:20:30.993Z,176
2016-08-16T09:20:56.542Z,172
2016-08-16T09:21:22.131Z,156
2016-08-16T09:21:47.705Z,160
2016-08-16T09:22:13.246Z,176
2016-08-16T09:22:39.054Z,172
2016-08-16T09:23:04.624Z,152
2016-08-16T09:23:30.197Z,152
2016-08-16T09:23:55.780Z,152
2016-08-16T09:24:21.352Z,152
2016-08-16T09:24:46.939Z,156
2016-08-16T09:25:12.519Z,156
2016-08-16T09:25:38.127Z,156
2016-08-16T09:26:03.694Z,160
2016-08-16T09:26:29.265Z,164
2016-08-16T09:26:54.908Z,168
2016-08-16T09:27:20.475Z,168
2016-08-16T09:27:46.035Z,168
2016-08-16T09:28:11.608Z,164
2016-08-16T09:28:37.172Z,164
2016-08-16T09:29:02.719Z,156
2016-08-16T09:29:28.371Z,148
2016-08-16T09:29:53.951Z,144
2016-08-16T09:30:19.531Z,140
2016-08-16T09:30:45.116Z,136
2016-08-16T09:31:10.694Z,132
2016-08-16T09:31:36.262Z,136
2016-08-16T09:32:01.834Z,136
2016-08-16T09:32:27.386Z,136
2016-08-16T09:32:53.005Z,140
2016-08-16T09:33:18.565Z,140
2016-08-16T09:33:44.128Z,144